createdAt,value
2019-06-10T00:02:50.745Z,11.3
2019-06-10T00:07:56.138Z,13.2
2019-06-10T00:13:01.934Z,12.7
2019-06-10T00:18:24.463Z,11.6
2019-06-10T00:23:11.675Z,14
2019-06-10T00:28:17.290Z,11.4
2019-06-10T00:33:24.311Z,16.2
2019-06-10T00:38:31.661Z,17.5
2019-06-10T00:43:36.906Z,13.2
2019-06-10T00:48:43.991Z,13.1
2019-06-10T00:53:51.138Z,13.2
2019-06-10T00:58:56.658Z,11.9
2019-06-10T01:04:06.836Z,11.8
2019-06-10T01:09:11.837Z,12.8
2019-06-10T01:14:21.348Z,12.6
2019-06-10T01:19:26.909Z,13
2019-06-10T01:24:34.646Z,13.8
2019-06-10T01:29:41.478Z,15.1
2019-06-10T01:34:47.314Z,12.8
2019-06-10T01:39:55.418Z,14.7
2019-06-10T01:45:01.138Z,17.3
2019-06-10T01:50:06.988Z,13.8
2019-06-10T01:55:14.074Z,13.1
2019-06-10T02:00:19.435Z,14.4
2019-06-10T02:05:22.674Z,15.2
2019-06-10T02:10:28.356Z,15
2019-06-10T02:15:35.393Z,14.4
2019-06-10T02:20:41.196Z,15.3
2019-06-10T02:25:46.666Z,14.5
2019-06-10T02:30:55.646Z,15.6
2019-06-10T02:35:55.514Z,14.8
2019-06-10T02:41:04.007Z,14.9
2019-06-10T02:46:12.650Z,15.5
2019-06-10T02:51:17.410Z,16.8
2019-06-10T02:56:19.870Z,16.3
2019-06-10T03:01:21.656Z,18.5
2019-06-10T03:06:29.661Z,19
2019-06-10T03:11:33.300Z,17.6
2019-06-10T03:16:32.904Z,17.2
2019-06-10T03:21:38.127Z,15.2
2019-06-10T03:26:45.701Z,15.6
2019-06-10T03:31:54.645Z,17.9
2019-06-10T03:37:02.432Z,17.4
2019-06-10T03:42:07.802Z,15.1
2019-06-10T03:47:15.179Z,15.6
2019-06-10T03:52:25.628Z,15.7
2019-06-10T03:57:26.792Z,14.8
2019-06-10T04:02:27.157Z,14.4
2019-06-10T04:07:35.104Z,13.1
2019-06-10T04:12:39.993Z,16.3
2019-06-10T04:17:47.617Z,13.8
2019-06-10T04:22:52.531Z,13.3
2019-06-10T04:27:56.060Z,12.9
2019-06-10T04:33:02.274Z,13.2
2019-06-10T04:38:07.379Z,13
2019-06-10T04:43:12.392Z,12.2
2019-06-10T04:48:18.516Z,12.6
2019-06-10T04:53:18.861Z,12.1
2019-06-10T04:58:24.365Z,13.5
2019-06-10T05:03:27.989Z,13.6
2019-06-10T05:08:34.934Z,11.3
2019-06-10T05:13:42.611Z,10.5
2019-06-10T05:18:47.787Z,10.9
2019-06-10T05:23:48.402Z,14.8
2019-06-10T05:28:55.686Z,9.9
2019-06-10T05:34:02.336Z,13.2
2019-06-10T05:39:07.712Z,9.5
2019-06-10T05:44:15.255Z,9.9
2019-06-10T05:49:23.074Z,10.6
2019-06-10T05:54:27.500Z,11.2
2019-06-10T05:59:27.346Z,9.4
2019-06-10T06:04:29.931Z,10.4
2019-06-10T06:09:29.463Z,9.6
2019-06-10T06:14:38.713Z,10.7
2019-06-10T06:19:45.954Z,9.6
2019-06-10T06:24:52.203Z,9.4
2019-06-10T06:29:58.278Z,10.4
2019-06-10T06:35:01.747Z,10.2
2019-06-10T06:40:07.294Z,8.5
2019-06-10T06:45:12.440Z,10
2019-06-10T06:50:17.777Z,10.5
2019-06-10T06:55:18.456Z,10.7
2019-06-10T07:00:42.439Z,10.9
2019-06-10T07:05:27.295Z,7.9
2019-06-10T07:10:28.089Z,8.4
2019-06-10T07:15:28.305Z,24.4
2019-06-10T07:20:28.715Z,10.2
2019-06-10T07:25:32.636Z,11.5
2019-06-10T07:30:44.391Z,12
2019-06-10T07:35:40.911Z,14.1
2019-06-10T07:40:48.245Z,11.1
2019-06-10T07:45:56.226Z,14.7
2019-06-10T07:51:02.744Z,9.5
2019-06-10T07:56:07.910Z,8.7
2019-06-10T08:01:16.726Z,11.1
2019-06-10T08:06:22.828Z,9.8
2019-06-10T08:11:28.329Z,9.8
2019-06-10T08:16:36.275Z,12.7
2019-06-10T08:21:41.518Z,11.1
2019-06-10T08:26:46.067Z,16.9
2019-06-10T08:31:52.988Z,10.1
2019-06-10T08:36:59.019Z,10.7
2019-06-10T08:42:08.806Z,9
2019-06-10T08:47:16.592Z,16.6
2019-06-10T08:52:24.605Z,9.4
2019-06-10T08:57:29.552Z,9.8
2019-06-10T09:02:39.092Z,23.5
2019-06-10T09:07:49.918Z,9.5
2019-06-10T09:12:51.961Z,11.3
2019-06-10T09:17:52.867Z,9.3
2019-06-10T09:23:13.181Z,10.9
2019-06-10T09:28:02.210Z,9.1
2019-06-10T09:33:07.781Z,9.7
2019-06-10T09:38:14.164Z,10.9
2019-06-10T09:43:22.022Z,10.8
2019-06-10T09:48:27.956Z,9
2019-06-10T09:53:39.234Z,8.7
2019-06-10T09:58:41.315Z,7.6
2019-06-10T10:03:53.543Z,9.4
2019-06-10T10:08:58.125Z,13.6
2019-06-10T10:13:57.408Z,7.8
2019-06-10T10:19:05.040Z,8.1
2019-06-10T10:24:14.094Z,10.6
2019-06-10T10:29:19.720Z,7.2
2019-06-10T10:34:25.631Z,7.3
2019-06-10T10:39:32.547Z,10.9
2019-06-10T10:44:37.996Z,6.9
2019-06-10T10:49:43.099Z,5.7
2019-06-10T10:54:54.244Z,6.8
2019-06-10T11:00:03.078Z,8.2
2019-06-10T11:05:08.352Z,6.3
2019-06-10T11:10:15.364Z,7.3
2019-06-10T11:15:20.408Z,5.4
2019-06-10T11:20:27.419Z,6.5
2019-06-10T11:25:33.266Z,6.7
2019-06-10T11:30:38.856Z,6.9
2019-06-10T11:35:46.707Z,7
2019-06-10T11:40:50.299Z,6.7
2019-06-10T11:45:59.644Z,7.4
2019-06-10T11:51:04.505Z,6.5
2019-06-10T11:56:10.017Z,6.4
2019-06-10T12:01:17.484Z,8.2
2019-06-10T12:06:25.583Z,5.7
2019-06-10T12:11:31.826Z,7
2019-06-10T12:21:43.698Z,7.8
2019-06-10T12:26:49.787Z,8.1
2019-06-10T12:31:57.689Z,7.2
2019-06-10T12:37:07.955Z,6.7
2019-06-10T12:42:11.692Z,6.6
2019-06-10T12:47:19.134Z,5.4
2019-06-10T12:52:26.649Z,6.8
2019-06-10T12:57:32.525Z,6.4
2019-06-10T13:02:37.872Z,8.9
2019-06-10T13:07:45.684Z,6.9
2019-06-10T13:12:53.082Z,6.9
2019-06-10T13:18:03.864Z,5.6
2019-06-10T13:23:13.763Z,5.6
2019-06-10T13:28:08.900Z,6.6
2019-06-10T13:33:14.632Z,6.9
2019-06-10T13:38:19.888Z,6.8
2019-06-10T13:43:28.756Z,6.3
2019-06-10T13:48:37.279Z,7.7
2019-06-10T13:53:37.527Z,6.8
2019-06-10T13:58:42.398Z,8.5
2019-06-10T14:03:53.448Z,10.2
2019-06-10T14:08:59.203Z,6.3
2019-06-10T14:14:09.509Z,8.4
2019-06-10T14:19:15.353Z,8.5
2019-06-10T14:24:22.733Z,7.4
2019-06-10T14:29:28.267Z,6.3
2019-06-10T14:34:33.273Z,7
2019-06-10T14:39:38.543Z,6.9
2019-06-10T14:44:46.481Z,6
2019-06-10T14:49:52.985Z,10.7
2019-06-10T14:54:58.529Z,7.3
2019-06-10T15:00:02.677Z,7.6
2019-06-10T15:05:02.610Z,6
2019-06-10T15:10:07.952Z,6.8
2019-06-10T15:15:12.182Z,8.7
2019-06-10T15:20:19.935Z,7.9
2019-06-10T15:25:28.207Z,5.6
2019-06-10T15:30:36.626Z,7.8
2019-06-10T15:35:42.635Z,5.9
2019-06-10T15:40:48.100Z,8.4
2019-06-10T15:45:55.709Z,7.9
2019-06-10T15:51:02.952Z,6.1
2019-06-10T15:56:17.861Z,6.4
2019-06-10T16:01:09.223Z,5.5
2019-06-10T16:06:09.290Z,6.1
2019-06-10T16:11:20.414Z,5
2019-06-10T16:16:21.367Z,5.9
2019-06-10T16:21:27.372Z,6.5
2019-06-10T16:26:35.371Z,7.3
2019-06-10T16:31:39.213Z,6.9
2019-06-10T16:36:47.083Z,8.4
2019-06-10T16:41:52.248Z,8.8
2019-06-10T16:46:57.413Z,8.7
2019-06-10T16:52:02.964Z,6.1
2019-06-10T16:57:09.398Z,5.7
2019-06-10T17:02:17.191Z,11.4
2019-06-10T17:07:20.277Z,6.5
2019-06-10T17:12:19.841Z,7.3
2019-06-10T17:17:20.473Z,9.5
2019-06-10T17:22:23.945Z,6.9
2019-06-10T17:27:26.717Z,5.3
2019-06-10T17:32:36.084Z,7
2019-06-10T17:37:43.062Z,8.9
2019-06-10T17:42:48.414Z,8.2
2019-06-10T17:47:54.585Z,8
2019-06-10T17:53:02.429Z,8
2019-06-10T17:58:06.594Z,7.4
2019-06-10T18:03:13.129Z,8.9
2019-06-10T18:08:17.332Z,7.3
2019-06-10T18:13:23.071Z,7.9
2019-06-10T18:18:22.635Z,12.3
2019-06-10T18:23:30.941Z,8.1
2019-06-10T18:28:57.659Z,7.7
2019-06-10T18:33:45.681Z,6.5
2019-06-10T18:38:52.501Z,8.2
2019-06-10T18:43:57.681Z,14.2
2019-06-10T18:49:05.776Z,10.8
2019-06-10T18:54:12.725Z,8.4
2019-06-10T18:59:21.032Z,7.5
2019-06-10T19:04:26.195Z,6.5
2019-06-10T19:09:29.131Z,8.8
2019-06-10T19:14:35.215Z,5.7
2019-06-10T19:19:36.067Z,9
2019-06-10T19:24:36.758Z,8
2019-06-10T19:29:45.423Z,9.3
2019-06-10T19:34:48.783Z,7.3
2019-06-10T19:39:59.728Z,8.2
2019-06-10T19:45:07.140Z,9
2019-06-10T19:50:05.098Z,8.1
2019-06-10T19:55:10.038Z,9.5
2019-06-10T20:00:18.301Z,12.5
2019-06-10T20:05:25.579Z,7.8
2019-06-10T20:10:32.355Z,7.8
2019-06-10T20:15:41.974Z,7.6
2019-06-10T20:20:47.008Z,7.6
2019-06-10T20:25:47.011Z,7.4
2019-06-10T20:30:55.666Z,8.3
2019-06-10T20:36:07.015Z,5.6
2019-06-10T20:41:12.552Z,5.7
2019-06-10T20:46:17.779Z,6
2019-06-10T20:51:22.784Z,6.5
2019-06-10T20:56:30.365Z,7.3
2019-06-10T21:01:38.726Z,5.6
2019-06-10T21:06:47.808Z,5.9
2019-06-10T21:11:56.552Z,6.6
2019-06-10T21:17:02.969Z,6.8
2019-06-10T21:22:08.532Z,5.1
2019-06-10T21:27:15.567Z,6.8
2019-06-10T21:32:20.483Z,6.1
2019-06-10T21:37:25.208Z,5.5
2019-06-10T21:42:29.007Z,6.5
2019-06-10T21:47:36.092Z,7.3
2019-06-10T21:52:44.026Z,5.9
2019-06-10T21:57:45.927Z,5.1
2019-06-10T22:02:48.864Z,7.5
2019-06-10T22:07:56.343Z,11.9
2019-06-10T22:13:03.128Z,9.1
2019-06-10T22:18:08.393Z,4.9
2019-06-10T22:23:15.920Z,6.3
2019-06-10T22:28:22.160Z,6
2019-06-10T22:33:27.396Z,8.4
2019-06-10T22:38:32.796Z,7.6
2019-06-10T22:43:37.969Z,6.8
2019-06-10T22:48:45.220Z,6.2
2019-06-10T22:53:56.539Z,6.2
2019-06-10T22:58:57.400Z,7.7
2019-06-10T23:04:06.653Z,7.9
2019-06-10T23:09:10.025Z,6.9
2019-06-10T23:14:17.462Z,6.3
2019-06-10T23:19:23.378Z,5.5
2019-06-10T23:24:32.292Z,6.6
2019-06-10T23:29:36.022Z,5.7
2019-06-10T23:34:42.215Z,7.8
2019-06-10T23:39:47.424Z,7.8
2019-06-10T23:44:53.357Z,8.7
2019-06-10T23:50:04.111Z,10.5
2019-06-10T23:55:12.642Z,7.9
